Time;durP1;ratioP1;P1;durP2;ratioP2;P2;SDS_P1;SDS_P2;PMS_P1;PMS_P2;Temp;Humidity;BMP_temperature;BMP_pressure;BME280_temperature;BME280_humidity;BME280_pressure;Samples;Min_cycle;Max_cycle;Signal;HPM_P1;HPM_P2
2023/07/07 00:01:23;;;;;;;5.70;1.00;;;14.10;99.90;;;;;;5033598;28;20029;-76
2023/07/07 00:03:49;;;;;;;3.10;0.63;;;13.70;99.90;;;;;;5033410;28;20029;-76
2023/07/07 00:06:15;;;;;;;3.08;1.08;;;13.70;99.90;;;;;;5033521;28;20105;-76
2023/07/07 00:08:40;;;;;;;2.95;1.13;;;13.60;99.90;;;;;;5033526;28;20053;-76
2023/07/07 00:11:08;;;;;;;2.45;0.98;;;13.60;99.90;;;;;;5033447;28;20102;-76
2023/07/07 00:13:34;;;;;;;1.40;0.80;;;13.50;99.90;;;;;;5033448;28;20083;-76
2023/07/07 00:16:01;;;;;;;2.92;0.63;;;13.50;99.90;;;;;;5031968;28;20037;-76
2023/07/07 00:18:27;;;;;;;7.35;1.88;;;13.40;99.90;;;;;;5032016;28;20026;-76
2023/07/07 00:20:54;;;;;;;6.55;1.02;;;13.10;99.90;;;;;;5033272;28;20442;-76
2023/07/07 00:23:20;;;;;;;3.03;1.10;;;13.30;99.90;;;;;;5033198;28;20010;-76
2023/07/07 00:25:55;;;;;;;3.30;1.63;;;14.50;99.90;;;;;;5031894;28;20030;-76
2023/07/07 00:28:21;;;;;;;3.78;1.30;;;14.40;99.90;;;;;;5033239;28;20415;-76
2023/07/07 00:30:46;;;;;;;5.03;1.73;;;13.30;99.90;;;;;;5031884;28;20025;-76
2023/07/07 00:33:12;;;;;;;5.78;1.77;;;13.30;99.90;;;;;;5032581;28;20021;-76
2023/07/07 00:35:48;;;;;;;4.85;1.88;;;13.30;99.90;;;;;;5031871;28;20025;-76
2023/07/07 00:38:14;;;;;;;4.97;1.95;;;13.20;99.90;;;;;;5033144;28;20028;-76
2023/07/07 00:40:40;;;;;;;4.97;2.28;;;13.20;99.90;;;;;;5033079;28;20049;-76
2023/07/07 00:43:17;;;;;;;4.90;1.98;;;13.10;99.90;;;;;;5031719;28;20057;-76
2023/07/07 00:45:43;;;;;;;4.68;2.20;;;13.10;99.90;;;;;;5033686;28;20026;-76
2023/07/07 00:48:16;;;;;;;4.15;2.03;;;13.10;99.90;;;;;;5031739;28;20032;-76
2023/07/07 00:50:59;;;;;;;3.42;2.20;;;13.10;99.90;;;;;;5031707;28;20110;-76
2023/07/07 00:53:26;;;;;;;4.05;2.53;;;13.00;99.90;;;;;;5032959;28;20022;-76
2023/07/07 00:56:03;;;;;;;5.82;2.78;;;13.00;99.90;;;;;;5031734;28;20017;-76
2023/07/07 00:58:30;;;;;;;5.45;2.50;;;12.90;99.90;;;;;;5031699;28;20031;-76
2023/07/07 01:01:05;;;;;;;10.20;2.38;;;13.00;99.90;;;;;;5031713;28;20017;-76
2023/07/07 01:03:37;;;;;;;5.88;2.53;;;12.90;99.90;;;;;;5032838;28;20450;-76
2023/07/07 01:06:06;;;;;;;6.00;2.20;;;12.80;99.90;;;;;;5031709;28;20076;-76
2023/07/07 01:08:33;;;;;;;8.63;3.60;;;12.80;99.90;;;;;;5031665;28;20053;-76
2023/07/07 01:10:59;;;;;;;7.05;2.72;;;12.80;99.90;;;;;;5033033;28;20497;-76
2023/07/07 01:13:26;;;;;;;6.07;3.10;;;12.80;99.90;;;;;;5032688;28;20084;-76
2023/07/07 01:15:54;;;;;;;9.10;3.17;;;12.70;99.90;;;;;;5032953;28;20021;-76
2023/07/07 01:18:40;;;;;;;5.03;2.97;;;12.70;99.90;;;;;;5032886;28;20029;-76
2023/07/07 01:21:17;;;;;;;9.52;3.60;;;12.60;99.90;;;;;;5033444;28;20350;-76
2023/07/07 01:23:53;;;;;;;5.13;3.00;;;12.60;99.90;;;;;;5031499;28;20029;-76
2023/07/07 01:26:44;;;;;;;4.88;3.13;;;12.50;99.90;;;;;;5033354;28;20105;-76
2023/07/07 01:29:47;;;;;;;5.93;3.67;;;12.50;99.90;;;;;;5033286;28;20026;-76
2023/07/07 01:32:21;;;;;;;8.43;3.22;;;12.50;99.90;;;;;;5032885;28;20130;-76
2023/07/07 01:34:47;;;;;;;8.48;3.25;;;12.50;99.90;;;;;;5032647;28;20396;-76
2023/07/07 01:37:13;;;;;;;8.85;3.50;;;12.50;99.90;;;;;;5032680;28;20143;-77
2023/07/07 01:39:40;;;;;;;7.43;2.30;;;12.40;99.90;;;;;;5032798;28;20516;-76
2023/07/07 01:42:09;;;;;;;5.93;2.70;;;12.40;99.90;;;;;;5033262;28;20026;-76
2023/07/07 01:44:53;;;;;;;6.43;2.90;;;12.40;99.90;;;;;;5034539;28;20072;-76
2023/07/07 01:47:29;;;;;;;6.03;3.35;;;12.40;99.90;;;;;;5034998;28;20018;-76
2023/07/07 01:50:04;;;;;;;8.90;2.90;;;12.40;99.90;;;;;;5036134;28;20019;-76
2023/07/07 01:52:43;;;;;;;7.28;3.72;;;12.30;99.90;;;;;;5034691;28;20021;-76
2023/07/07 01:55:17;;;;;;;6.97;3.15;;;12.30;99.90;;;;;;5034963;28;20112;-77
2023/07/07 01:57:46;;;;;;;5.40;3.10;;;12.30;99.90;;;;;;5036523;28;20049;-77
2023/07/07 02:00:15;;;;;;;7.47;3.63;;;12.30;99.90;;;;;;5036300;28;20400;-77
2023/07/07 02:02:40;;;;;;;6.13;3.03;;;12.30;99.90;;;;;;5036313;28;20108;-77
2023/07/07 02:05:07;;;;;;;5.07;3.10;;;12.30;99.90;;;;;;5036328;28;20112;-77
2023/07/07 02:07:33;;;;;;;10.98;3.70;;;12.30;99.90;;;;;;5035137;28;20116;-77
2023/07/07 02:09:59;;;;;;;6.18;3.35;;;12.30;99.90;;;;;;5036172;28;20056;-77
2023/07/07 02:12:24;;;;;;;13.10;3.78;;;12.30;99.90;;;;;;5036122;28;20021;-77
2023/07/07 02:14:50;;;;;;;5.65;3.40;;;12.20;99.90;;;;;;5035867;28;20037;-77
2023/07/07 02:17:16;;;;;;;5.60;3.28;;;12.20;99.90;;;;;;5035919;28;20516;-76
2023/07/07 02:19:42;;;;;;;5.97;3.22;;;12.30;99.90;;;;;;5034548;28;20064;-77
2023/07/07 02:22:08;;;;;;;4.80;3.13;;;12.30;99.90;;;;;;5034290;28;20117;-76
2023/07/07 02:24:34;;;;;;;8.10;3.17;;;12.30;99.90;;;;;;5035475;28;20104;-77
2023/07/07 02:27:00;;;;;;;8.45;3.55;;;12.30;99.90;;;;;;5035528;28;20022;-76
2023/07/07 02:29:26;;;;;;;7.93;3.97;;;12.30;99.90;;;;;;5035632;28;20055;-77
2023/07/07 02:31:51;;;;;;;7.50;4.30;;;12.40;99.90;;;;;;5034132;28;20018;-76
2023/07/07 02:34:17;;;;;;;8.60;3.63;;;12.40;99.90;;;;;;5034118;28;20026;-76
2023/07/07 02:36:42;;;;;;;8.32;3.90;;;12.40;99.90;;;;;;5035815;28;20029;-77
2023/07/07 02:39:08;;;;;;;8.63;3.65;;;12.40;99.90;;;;;;5035617;28;20037;-77
2023/07/07 02:41:36;;;;;;;8.80;3.38;;;12.50;99.90;;;;;;5034199;28;20029;-77
2023/07/07 02:44:02;;;;;;;10.52;3.58;;;12.50;99.90;;;;;;5035333;28;20032;-77
2023/07/07 02:46:30;;;;;;;7.75;3.72;;;12.50;99.90;;;;;;5035322;28;20026;-77
2023/07/07 02:48:56;;;;;;;5.82;3.08;;;12.50;99.90;;;;;;5034187;28;20027;-76
2023/07/07 02:51:21;;;;;;;6.45;3.53;;;12.50;99.90;;;;;;5035190;28;20108;-76
2023/07/07 02:53:47;;;;;;;6.50;3.08;;;12.50;99.90;;;;;;5033895;28;20018;-77
2023/07/07 02:56:12;;;;;;;7.15;2.90;;;12.50;99.90;;;;;;5034167;28;20025;-77
2023/07/07 02:58:38;;;;;;;8.10;3.50;;;12.40;99.90;;;;;;5035083;28;20056;-76
2023/07/07 03:01:10;;;;;;;6.22;2.83;;;12.50;99.90;;;;;;5033461;28;20036;-77
2023/07/07 03:03:37;;;;;;;11.45;3.25;;;12.50;99.90;;;;;;5034913;28;20067;-76
2023/07/07 03:06:09;;;;;;;6.13;3.30;;;12.50;99.90;;;;;;5034576;28;20370;-77
2023/07/07 03:08:35;;;;;;;5.00;2.42;;;12.50;99.90;;;;;;5034626;28;20017;-76
2023/07/07 03:11:05;;;;;;;6.78;2.67;;;12.80;99.90;;;;;;5034458;28;20075;-76
2023/07/07 03:13:31;;;;;;;4.95;2.80;;;12.40;99.90;;;;;;5034221;28;20446;-76
2023/07/07 03:15:56;;;;;;;6.50;3.13;;;12.40;99.90;;;;;;5034384;28;20057;-77
2023/07/07 03:18:22;;;;;;;7.35;3.65;;;13.30;99.90;;;;;;5034901;28;20060;-76
2023/07/07 03:20:48;;;;;;;7.00;3.50;;;12.40;99.90;;;;;;5033071;28;20041;-76
2023/07/07 03:23:14;;;;;;;8.25;3.03;;;12.40;99.90;;;;;;5034185;28;20026;-76
2023/07/07 03:25:40;;;;;;;7.88;3.10;;;12.40;99.90;;;;;;5032972;28;20393;-76
2023/07/07 03:28:05;;;;;;;6.15;3.50;;;12.50;99.90;;;;;;5034342;28;20021;-76
2023/07/07 03:30:31;;;;;;;5.30;3.20;;;12.50;99.90;;;;;;5032931;28;20022;-77
2023/07/07 03:32:56;;;;;;;7.88;3.80;;;12.50;99.90;;;;;;5034038;28;20024;-76
2023/07/07 03:35:22;;;;;;;6.53;3.75;;;12.50;99.90;;;;;;5034113;28;20370;-76
2023/07/07 03:37:48;;;;;;;7.07;3.67;;;12.50;99.90;;;;;;5034013;28;20033;-77
2023/07/07 03:40:14;;;;;;;7.10;3.25;;;12.50;99.90;;;;;;5034165;28;20032;-76
2023/07/07 03:42:39;;;;;;;9.48;3.47;;;12.50;99.90;;;;;;5032590;28;20022;-76
2023/07/07 03:45:06;;;;;;;4.78;2.80;;;12.50;99.90;;;;;;5032566;28;20076;-76
2023/07/07 03:47:31;;;;;;;10.50;3.65;;;12.50;99.90;;;;;;5032661;28;20437;-76
2023/07/07 03:49:57;;;;;;;9.93;3.78;;;12.50;99.90;;;;;;5033744;28;20056;-76
2023/07/07 03:52:22;;;;;;;7.10;3.65;;;12.90;99.90;;;;;;5033769;28;20021;-76
2023/07/07 03:54:48;;;;;;;9.20;3.58;;;12.60;99.90;;;;;;5032555;28;20392;-77
2023/07/07 03:57:13;;;;;;;6.20;3.50;;;12.70;99.90;;;;;;5033700;28;20023;-77
2023/07/07 03:59:39;;;;;;;10.48;4.85;;;12.70;99.90;;;;;;5034521;28;20060;-77
2023/07/07 04:02:06;;;;;;;7.28;3.92;;;12.70;99.90;;;;;;5032634;28;20053;-77
2023/07/07 04:04:31;;;;;;;6.43;3.90;;;12.80;99.90;;;;;;5033680;28;20487;-77
2023/07/07 04:06:58;;;;;;;9.20;4.38;;;12.80;99.90;;;;;;5033729;28;20068;-76
2023/07/07 04:09:24;;;;;;;7.35;3.88;;;12.80;99.90;;;;;;5032165;28;20021;-77
2023/07/07 04:11:50;;;;;;;5.78;3.90;;;12.90;99.90;;;;;;5033488;28;20022;-77
2023/07/07 04:14:18;;;;;;;7.47;3.65;;;13.00;99.90;;;;;;5033500;28;20048;-77
2023/07/07 04:16:44;;;;;;;7.33;4.17;;;13.00;99.90;;;;;;5034238;28;20496;-77
2023/07/07 04:19:10;;;;;;;6.97;3.67;;;13.10;99.90;;;;;;5033660;28;20026;-76
2023/07/07 04:21:35;;;;;;;5.65;2.85;;;13.20;99.90;;;;;;5034071;28;20030;-77
2023/07/07 04:24:02;;;;;;;5.78;3.35;;;13.20;99.90;;;;;;5032053;28;20107;-77
2023/07/07 04:26:30;;;;;;;9.50;3.78;;;13.30;99.90;;;;;;5032176;28;20021;-77
2023/07/07 04:28:58;;;;;;;6.28;3.55;;;13.30;99.90;;;;;;5033553;28;20105;-77
2023/07/07 04:31:25;;;;;;;8.23;4.20;;;13.40;99.90;;;;;;5032300;28;20501;-77
2023/07/07 04:33:52;;;;;;;7.68;3.58;;;13.50;99.90;;;;;;5033649;28;20030;-76
2023/07/07 04:36:18;;;;;;;8.65;3.88;;;13.60;99.90;;;;;;5033287;28;20022;-76
2023/07/07 04:38:44;;;;;;;4.97;3.08;;;13.70;99.90;;;;;;5033236;28;20029;-77
2023/07/07 04:41:15;;;;;;;6.57;3.63;;;13.80;99.90;;;;;;5031995;28;20068;-76
2023/07/07 04:43:45;;;;;;;5.55;3.20;;;13.80;99.90;;;;;;5033214;28;20493;-76
2023/07/07 04:46:13;;;;;;;12.13;3.92;;;14.00;99.90;;;;;;5031997;28;20021;-77
2023/07/07 04:48:39;;;;;;;8.25;3.30;;;14.10;99.90;;;;;;5033386;28;20358;-76
2023/07/07 04:51:07;;;;;;;7.72;3.08;;;14.10;99.90;;;;;;5033050;28;20124;-76
2023/07/07 04:53:37;;;;;;;8.38;4.00;;;14.20;99.90;;;;;;5032903;28;20493;-76
2023/07/07 04:56:10;;;;;;;6.13;3.72;;;14.30;99.90;;;;;;5032103;28;20029;-77
2023/07/07 04:58:37;;;;;;;5.85;4.10;;;14.40;99.90;;;;;;5031724;28;20067;-76
2023/07/07 05:01:17;;;;;;;9.30;3.63;;;14.50;99.90;;;;;;5031610;28;20049;-76
2023/07/07 05:03:44;;;;;;;6.25;3.33;;;14.60;99.90;;;;;;5031459;28;20437;-76
2023/07/07 05:06:11;;;;;;;15.23;3.88;;;14.70;99.90;;;;;;5033125;28;20084;-77
2023/07/07 05:08:40;;;;;;;5.28;3.22;;;14.80;99.90;;;;;;5033740;28;20029;-76
2023/07/07 05:11:06;;;;;;;5.95;2.95;;;14.90;99.90;;;;;;5032807;28;20029;-76
2023/07/07 05:13:32;;;;;;;6.88;3.28;;;15.00;99.90;;;;;;5031551;28;20507;-76
2023/07/07 05:16:11;;;;;;;7.30;3.53;;;15.10;99.90;;;;;;5033418;28;20029;-77
2023/07/07 05:18:37;;;;;;;8.32;3.58;;;15.20;99.90;;;;;;5033795;28;20033;-76
2023/07/07 05:21:04;;;;;;;10.15;3.83;;;15.30;99.90;;;;;;5037249;28;20033;-77
2023/07/07 05:23:30;;;;;;;6.57;3.58;;;15.40;99.90;;;;;;5036658;28;20507;-77
2023/07/07 05:25:56;;;;;;;7.10;3.55;;;15.60;99.90;;;;;;5035316;28;20120;-76
2023/07/07 05:28:22;;;;;;;5.07;3.05;;;15.70;99.90;;;;;;5036533;28;20021;-77
2023/07/07 05:30:48;;;;;;;6.78;3.55;;;15.80;99.90;;;;;;5035002;28;20508;-76
2023/07/07 05:33:14;;;;;;;5.57;3.10;;;15.90;99.90;;;;;;5036852;28;20143;-76
2023/07/07 05:35:47;;;;;;;6.28;2.90;;;16.10;99.90;;;;;;5036273;28;20500;-76
2023/07/07 05:38:12;;;;;;;6.95;2.85;;;16.10;99.90;;;;;;5035026;28;20029;-76
2023/07/07 05:40:42;;;;;;;4.40;2.65;;;16.20;99.90;;;;;;5036170;28;20083;-76
2023/07/07 05:43:08;;;;;;;5.65;2.88;;;16.30;99.90;;;;;;5036018;28;20021;-76
2023/07/07 05:45:33;;;;;;;6.68;3.10;;;16.40;99.90;;;;;;5035991;28;20025;-76
2023/07/07 05:47:59;;;;;;;11.25;3.50;;;16.60;99.90;;;;;;5036300;28;20045;-76
2023/07/07 05:50:25;;;;;;;5.13;3.10;;;16.70;99.90;;;;;;5034776;28;20068;-76
2023/07/07 05:52:51;;;;;;;8.05;3.47;;;16.80;99.90;;;;;;5036052;28;20021;-76
2023/07/07 05:55:32;;;;;;;5.90;2.78;;;16.90;99.90;;;;;;5036188;28;20068;-76
2023/07/07 05:57:59;;;;;;;5.93;2.58;;;17.00;99.90;;;;;;5036373;28;20132;-77
2023/07/07 06:00:27;;;;;;;7.20;2.55;;;17.10;99.90;;;;;;5036153;28;20101;-76
2023/07/07 06:02:53;;;;;;;3.75;2.30;;;17.20;99.90;;;;;;5036158;28;20078;-76
2023/07/07 06:05:18;;;;;;;6.95;2.67;;;17.30;99.90;;;;;;5034782;28;20108;-76
2023/07/07 06:07:46;;;;;;;5.60;2.65;;;17.40;99.90;;;;;;5037070;28;20111;-76
2023/07/07 06:10:12;;;;;;;6.10;2.83;;;17.50;99.90;;;;;;5034613;28;20017;-76
2023/07/07 06:12:37;;;;;;;4.70;2.40;;;17.70;99.90;;;;;;5037126;28;20025;-76
2023/07/07 06:15:05;;;;;;;3.35;1.88;;;17.70;99.90;;;;;;5039708;28;20052;-77
2023/07/07 06:17:30;;;;;;;5.15;2.35;;;17.80;99.90;;;;;;5038366;28;20053;-78
2023/07/07 06:19:56;;;;;;;6.25;2.05;;;17.90;99.90;;;;;;5038371;28;20076;-77
2023/07/07 06:22:21;;;;;;;6.95;2.03;;;18.00;99.90;;;;;;5038191;28;20343;-74
2023/07/07 06:24:47;;;;;;;8.05;2.10;;;18.20;99.90;;;;;;5036279;28;20033;-77
2023/07/07 06:27:13;;;;;;;5.68;2.60;;;18.20;99.90;;;;;;5037520;28;20028;-77
2023/07/07 06:29:38;;;;;;;7.32;2.15;;;18.70;99.90;;;;;;5034236;28;20021;-75
2023/07/07 06:32:04;;;;;;;5.93;2.03;;;18.40;99.90;;;;;;5037040;28;20462;-79
2023/07/07 06:34:30;;;;;;;3.63;1.27;;;18.50;99.90;;;;;;5035552;28;20159;-75
2023/07/07 06:36:55;;;;;;;5.18;2.10;;;18.60;99.90;;;;;;5035195;28;20500;-75
2023/07/07 06:39:21;;;;;;;6.00;1.40;;;18.80;99.90;;;;;;5035015;28;20054;-75
2023/07/07 06:41:46;;;;;;;5.75;1.88;;;18.90;99.90;;;;;;5035644;28;20029;-75
2023/07/07 06:44:12;;;;;;;2.67;1.52;;;19.00;99.90;;;;;;5034891;28;20021;-75
2023/07/07 06:46:38;;;;;;;2.97;1.20;;;19.10;99.90;;;;;;5034956;28;20029;-75
2023/07/07 06:49:04;;;;;;;3.75;2.08;;;19.30;99.90;;;;;;5034927;28;20033;-75
2023/07/07 06:51:30;;;;;;;4.15;1.45;;;19.40;99.90;;;;;;5034854;28;20100;-75
2023/07/07 06:53:57;;;;;;;4.63;1.88;;;19.80;99.90;;;;;;5034737;28;20071;-75
2023/07/07 06:56:22;;;;;;;3.72;1.70;;;19.70;99.90;;;;;;5033675;28;20108;-75
2023/07/07 06:58:48;;;;;;;7.00;1.98;;;19.80;99.90;;;;;;5034718;28;20087;-75
2023/07/07 07:01:14;;;;;;;23.30;2.22;;;19.80;99.90;;;;;;5034312;28;20026;-75
2023/07/07 07:03:42;;;;;;;5.15;2.20;;;20.00;99.90;;;;;;5033292;28;20029;-75
2023/07/07 07:06:08;;;;;;;3.10;1.27;;;20.10;99.90;;;;;;5032497;28;20048;-75
2023/07/07 07:08:33;;;;;;;2.65;1.20;;;20.30;99.90;;;;;;5034107;28;20064;-75
2023/07/07 07:11:00;;;;;;;5.38;1.80;;;20.30;99.90;;;;;;5033455;28;20113;-75
2023/07/07 07:13:26;;;;;;;6.47;1.77;;;20.40;99.90;;;;;;5033824;28;20068;-75
2023/07/07 07:15:51;;;;;;;3.80;1.25;;;20.70;99.90;;;;;;5034468;28;20057;-75
2023/07/07 07:18:17;;;;;;;6.55;1.88;;;20.60;99.90;;;;;;5035035;28;20049;-75
2023/07/07 07:20:43;;;;;;;5.13;1.25;;;20.70;99.90;;;;;;5034302;28;20366;-75
2023/07/07 07:23:12;;;;;;;3.17;1.08;;;20.80;99.90;;;;;;5034224;28;20079;-75
2023/07/07 07:25:38;;;;;;;7.20;1.75;;;20.90;99.90;;;;;;5034164;28;20026;-75
2023/07/07 07:28:04;;;;;;;3.70;1.65;;;21.10;99.90;;;;;;5032985;28;20389;-75
2023/07/07 07:30:29;;;;;;;2.78;1.55;;;21.10;99.90;;;;;;5034066;28;20431;-75
2023/07/07 07:32:57;;;;;;;2.10;1.20;;;21.20;99.90;;;;;;5034558;28;20021;-75
2023/07/07 07:35:22;;;;;;;4.30;1.08;;;21.30;99.90;;;;;;5034600;28;20107;-75
2023/07/07 07:37:48;;;;;;;2.85;0.90;;;21.40;99.90;;;;;;5033924;28;20477;-75
2023/07/07 07:40:14;;;;;;;4.53;1.23;;;21.50;99.90;;;;;;5033807;28;20056;-75
2023/07/07 07:42:40;;;;;;;2.15;0.70;;;21.70;99.90;;;;;;5034310;28;20481;-75
2023/07/07 07:45:06;;;;;;;2.03;1.20;;;21.80;99.90;;;;;;5033867;28;20484;-75
2023/07/07 07:47:32;;;;;;;3.58;1.13;;;21.90;99.90;;;;;;5033800;28;20028;-75
2023/07/07 07:49:58;;;;;;;2.90;1.10;;;22.00;99.90;;;;;;5034338;28;20104;-75
2023/07/07 07:52:23;;;;;;;6.38;0.80;;;22.10;99.90;;;;;;5032462;28;20441;-75
2023/07/07 07:54:50;;;;;;;2.83;0.70;;;22.20;99.90;;;;;;5033704;28;20049;-75
2023/07/07 07:57:16;;;;;;;3.40;0.45;;;22.30;99.90;;;;;;5033716;28;20036;-75
2023/07/07 07:59:41;;;;;;;4.43;0.80;;;22.40;99.90;;;;;;5033723;28;20472;-75
2023/07/07 08:02:10;;;;;;;5.07;0.85;;;22.40;99.90;;;;;;5033586;28;20029;-75
2023/07/07 08:04:36;;;;;;;5.47;0.90;;;22.50;99.90;;;;;;5034434;28;20033;-75
2023/07/07 08:07:01;;;;;;;2.15;0.50;;;22.60;99.90;;;;;;5033551;28;20026;-75
2023/07/07 08:09:27;;;;;;;1.63;0.57;;;22.60;99.90;;;;;;5032543;28;20416;-75
2023/07/07 08:11:55;;;;;;;2.13;0.38;;;22.70;99.90;;;;;;5033470;28;20053;-75
2023/07/07 08:14:23;;;;;;;4.35;0.40;;;22.80;99.90;;;;;;5033242;28;20035;-75
2023/07/07 08:16:51;;;;;;;1.45;0.20;;;22.90;99.90;;;;;;5033419;28;20022;-75
2023/07/07 08:19:17;;;;;;;0.70;0.17;;;22.90;99.90;;;;;;5032157;28;20065;-75
2023/07/07 08:21:42;;;;;;;6.40;0.82;;;23.00;99.80;;;;;;5033303;28;20064;-75
2023/07/07 08:24:08;;;;;;;2.75;0.32;;;23.30;99.40;;;;;;5033691;28;20026;-75
2023/07/07 08:26:34;;;;;;;0.90;0.10;;;23.40;98.90;;;;;;5033359;28;20489;-75
2023/07/07 08:29:00;;;;;;;2.55;0.10;;;23.40;98.60;;;;;;5033238;28;20112;-75
2023/07/07 08:31:26;;;;;;;1.45;0.20;;;23.60;98.30;;;;;;5033218;28;20067;-75
2023/07/07 08:33:52;;;;;;;1.27;0.10;;;23.70;98.50;;;;;;5033189;28;20481;-74
2023/07/07 08:36:18;;;;;;;1.25;0.17;;;23.80;98.80;;;;;;5031902;28;20022;-75
2023/07/07 08:38:44;;;;;;;2.10;0.15;;;23.90;96.80;;;;;;5031815;28;20072;-75
2023/07/07 08:41:10;;;;;;;3.28;0.15;;;24.00;96.70;;;;;;5031937;28;20061;-75
2023/07/07 08:43:36;;;;;;;1.52;0.20;;;24.00;96.60;;;;;;5033058;28;20021;-75
2023/07/07 08:46:25;;;;;;;2.05;0.43;;;24.10;96.80;;;;;;5032959;28;20034;-75
2023/07/07 08:48:59;;;;;;;1.60;0.05;;;24.30;95.80;;;;;;5033231;28;20393;-75
2023/07/07 08:51:32;;;;;;;2.17;0.10;;;24.30;95.60;;;;;;5033091;28;20021;-75
2023/07/07 08:54:11;;;;;;;4.90;0.10;;;24.40;95.30;;;;;;5034308;28;20032;-75
2023/07/07 08:57:06;;;;;;;4.22;0.30;;;24.40;95.00;;;;;;5037030;28;20404;-75
2023/07/07 08:59:37;;;;;;;1.02;0.47;;;24.50;93.90;;;;;;5035282;28;20128;-75
2023/07/07 09:02:10;;;;;;;3.50;0.00;;;24.60;93.70;;;;;;5035909;28;20075;-75
2023/07/07 09:05:08;;;;;;;1.95;0.10;;;24.70;93.50;;;;;;5037319;28;20080;-74
2023/07/07 09:07:36;;;;;;;1.50;0.25;;;24.80;92.20;;;;;;5015349;28;20026;-74
2023/07/07 09:10:21;;;;;;;;;;;24.90;91.20;;;;;;5037772;28;20021;-74
2023/07/07 09:13:01;;;;;;;1.40;0.20;;;24.90;91.30;;;;;;5035382;28;19923;-74
2023/07/07 09:15:34;;;;;;;0.50;0.00;;;25.00;90.80;;;;;;5036396;28;20037;-74
2023/07/07 09:18:28;;;;;;;0.60;0.10;;;25.10;91.10;;;;;;5036423;28;20029;-74
2023/07/07 09:20:56;;;;;;;0.60;0.00;;;25.20;90.30;;;;;;5036927;28;20017;-74
2023/07/07 09:23:26;;;;;;;0.82;0.00;;;25.30;86.10;;;;;;5036588;28;20025;-73
2023/07/07 09:26:16;;;;;;;2.35;0.20;;;25.50;85.00;;;;;;5035919;28;20021;-74
2023/07/07 09:28:45;;;;;;;0.75;0.00;;;25.50;81.40;;;;;;5036935;28;20506;-75
2023/07/07 09:31:31;;;;;;;2.50;0.00;;;25.50;81.20;;;;;;5036351;28;20022;-73
2023/07/07 09:33:59;;;;;;;2.15;0.30;;;25.60;81.20;;;;;;5035889;28;20419;-75
2023/07/07 09:36:36;;;;;;;1.13;0.10;;;25.80;79.20;;;;;;5036346;28;20017;-75
2023/07/07 09:39:27;;;;;;;0.80;0.10;;;25.90;75.40;;;;;;5036515;28;20032;-77
2023/07/07 09:42:01;;;;;;;0.82;0.17;;;25.90;72.20;;;;;;5036374;28;20029;-77
2023/07/07 09:44:54;;;;;;;2.35;0.00;;;26.00;69.30;;;;;;5036288;28;20037;-77
2023/07/07 09:47:37;;;;;;;1.20;0.13;;;26.10;67.80;;;;;;5036746;28;20040;-77
2023/07/07 09:50:31;;;;;;;0.80;0.10;;;26.20;68.60;;;;;;5036989;28;20118;-77
2023/07/07 09:53:07;;;;;;;0.35;0.10;;;26.20;65.50;;;;;;5010714;28;20049;-76
2023/07/07 09:55:36;;;;;;;0.65;0.00;;;26.20;62.30;;;;;;5035171;28;20044;-77
2023/07/07 09:58:12;;;;;;;;;;;26.30;63.10;;;;;;5036898;28;20392;-77
2023/07/07 10:00:39;;;;;;;0.35;0.00;;;26.30;60.00;;;;;;5036943;28;19905;-77
2023/07/07 10:03:31;;;;;;;0.75;0.05;;;26.40;62.10;;;;;;5035143;28;20019;-77
2023/07/07 10:05:59;;;;;;;1.95;0.10;;;26.50;64.10;;;;;;5035814;28;20457;-75
2023/07/07 10:08:25;;;;;;;1.83;0.13;;;26.60;62.80;;;;;;5034575;28;20074;-75
2023/07/07 10:11:16;;;;;;;2.45;0.00;;;26.70;63.60;;;;;;5035741;28;20021;-76
2023/07/07 10:13:41;;;;;;;0.10;0.10;;;26.80;60.60;;;;;;5035458;28;20021;-77
2023/07/07 10:16:17;;;;;;;0.60;0.08;;;26.90;60.40;;;;;;5035501;28;20033;-75
2023/07/07 10:18:43;;;;;;;3.95;0.20;;;27.00;60.80;;;;;;5036319;28;20044;-76
2023/07/07 10:21:10;;;;;;;1.13;0.00;;;27.00;60.70;;;;;;5035944;28;20079;-76
2023/07/07 10:23:38;;;;;;;0.35;0.00;;;27.10;60.00;;;;;;5035357;28;20428;-76
2023/07/07 10:26:04;;;;;;;;;;;27.10;59.80;;;;;;5035824;28;20584;-77
2023/07/07 10:28:30;;;;;;;0.22;0.00;;;27.20;59.20;;;;;;5036008;28;19947;-75
2023/07/07 10:30:56;;;;;;;2.28;0.13;;;27.40;61.30;;;;;;5035355;28;20017;-75
2023/07/07 10:33:21;;;;;;;0.30;0.05;;;27.50;58.30;;;;;;5034064;28;20022;-75
2023/07/07 10:35:48;;;;;;;0.10;0.00;;;27.60;58.00;;;;;;5035306;28;20105;-74
2023/07/07 10:38:13;;;;;;;1.25;0.00;;;27.60;60.50;;;;;;5035154;28;20100;-74
2023/07/07 10:40:42;;;;;;;0.20;0.00;;;27.70;59.50;;;;;;5035161;28;20437;-74
2023/07/07 10:43:18;;;;;;;0.20;0.00;;;27.80;58.80;;;;;;5035018;28;20060;-74
2023/07/07 10:45:45;;;;;;;0.30;0.00;;;27.90;59.00;;;;;;5035091;28;20061;-74
2023/07/07 10:48:13;;;;;;;0.82;0.00;;;28.10;58.30;;;;;;5034957;28;20021;-74
2023/07/07 10:50:52;;;;;;;1.80;0.20;;;28.10;56.20;;;;;;5034947;28;20025;-74
2023/07/07 10:53:28;;;;;;;0.73;0.10;;;28.30;58.10;;;;;;5034875;28;20260;-74
2023/07/07 10:56:12;;;;;;;0.60;0.00;;;28.40;56.90;;;;;;5035557;28;20033;-74
2023/07/07 10:58:46;;;;;;;3.33;0.20;;;28.60;57.80;;;;;;5035385;28;20037;-74
2023/07/07 11:01:12;;;;;;;0.43;0.10;;;28.70;55.80;;;;;;5033570;28;20523;-74
2023/07/07 11:03:51;;;;;;;0.82;0.00;;;28.80;55.00;;;;;;5034719;28;20078;-74
2023/07/07 11:06:41;;;;;;;0.73;0.03;;;28.90;54.10;;;;;;5033304;28;20386;-74
2023/07/07 11:09:10;;;;;;;0.52;0.10;;;28.90;54.20;;;;;;5034560;28;20032;-74
2023/07/07 11:11:45;;;;;;;2.78;0.60;;;28.90;53.40;;;;;;5034513;28;20033;-74
2023/07/07 11:14:52;;;;;;;1.13;0.30;;;29.00;53.10;;;;;;5034408;28;20167;-74
2023/07/07 11:17:33;;;;;;;0.80;0.08;;;29.10;54.50;;;;;;5030710;28;20041;-74
2023/07/07 11:20:11;;;;;;;0.65;0.10;;;29.20;52.20;;;;;;5034464;28;20084;-74
2023/07/07 11:22:55;;;;;;;1.15;0.20;;;29.30;51.40;;;;;;5034756;28;20026;-74
2023/07/07 11:25:39;;;;;;;1.55;0.22;;;29.30;53.70;;;;;;5034299;28;20018;-74
2023/07/07 11:28:26;;;;;;;0.55;0.13;;;29.40;50.10;;;;;;5034310;28;20022;-74
2023/07/07 11:30:54;;;;;;;1.42;0.32;;;29.50;49.80;;;;;;5034783;28;20031;-74
2023/07/07 11:33:29;;;;;;;0.50;0.05;;;29.60;48.80;;;;;;5034454;28;20397;-74
2023/07/07 11:36:35;;;;;;;0.75;0.10;;;29.60;48.90;;;;;;5034125;28;20029;-74
2023/07/07 11:39:04;;;;;;;0.20;0.00;;;29.70;48.50;;;;;;5032751;28;20029;-74
2023/07/07 11:41:59;;;;;;;0.30;0.00;;;29.80;52.30;;;;;;5033976;28;20488;-74
2023/07/07 11:44:34;;;;;;;0.45;0.00;;;30.00;50.80;;;;;;5033942;28;20025;-74
2023/07/07 11:47:02;;;;;;;0.65;0.00;;;30.10;48.50;;;;;;5034704;28;20048;-74
2023/07/07 11:49:28;;;;;;;1.08;0.10;;;30.30;49.10;;;;;;5032527;28;20056;-76
2023/07/07 11:52:03;;;;;;;0.50;0.10;;;30.30;50.00;;;;;;5034314;28;20025;-76
2023/07/07 11:54:47;;;;;;;1.88;0.50;;;30.40;49.20;;;;;;5033714;28;20079;-76
2023/07/07 11:57:24;;;;;;;1.48;0.10;;;30.50;49.40;;;;;;5033660;28;20033;-76
2023/07/07 12:00:15;;;;;;;1.77;0.40;;;30.40;46.40;;;;;;5034323;28;20362;-75
2023/07/07 12:02:47;;;;;;;0.50;0.10;;;30.50;46.50;;;;;;5033668;28;20029;-76
2023/07/07 12:05:24;;;;;;;0.68;0.00;;;30.60;45.90;;;;;;5034070;28;20021;-76
2023/07/07 12:07:54;;;;;;;2.72;0.20;;;30.70;44.80;;;;;;5033646;28;20061;-74
2023/07/07 12:10:26;;;;;;;0.68;0.00;;;30.80;41.90;;;;;;5033600;28;20028;-75
2023/07/07 12:13:10;;;;;;;1.25;0.00;;;30.90;45.80;;;;;;5033400;28;20029;-74
2023/07/07 12:15:38;;;;;;;0.55;0.20;;;30.70;43.00;;;;;;5034059;28;20572;-76
2023/07/07 12:18:31;;;;;;;2.20;0.03;;;30.80;43.70;;;;;;5033894;28;20026;-74
2023/07/07 12:21:11;;;;;;;1.75;0.10;;;31.00;44.70;;;;;;5032218;28;20104;-74
2023/07/07 12:23:40;;;;;;;1.13;0.10;;;31.20;45.00;;;;;;5033622;28;20036;-74
2023/07/07 12:26:22;;;;;;;0.22;0.00;;;31.40;44.60;;;;;;5033314;28;20051;-74
2023/07/07 12:28:51;;;;;;;2.03;0.30;;;31.40;43.50;;;;;;5033915;28;20114;-74
2023/07/07 12:31:19;;;;;;;2.72;0.20;;;31.40;42.90;;;;;;5032027;28;20120;-74
2023/07/07 12:33:44;;;;;;;0.45;0.00;;;31.40;43.10;;;;;;5033353;28;20391;-74
2023/07/07 12:36:14;;;;;;;0.60;0.10;;;31.50;42.30;;;;;;5033148;28;20026;-74
2023/07/07 12:38:41;;;;;;;0.43;0.10;;;31.30;43.00;;;;;;5033710;28;20032;-74
2023/07/07 12:41:10;;;;;;;1.30;0.03;;;31.40;44.60;;;;;;5033247;28;20021;-76
2023/07/07 12:43:43;;;;;;;0.68;0.20;;;31.60;44.90;;;;;;5032102;28;20326;-76
2023/07/07 12:46:29;;;;;;;2.55;0.10;;;31.80;44.30;;;;;;5033046;28;20034;-76
2023/07/07 12:49:04;;;;;;;0.60;0.10;;;32.30;43.80;;;;;;5031840;28;20481;-76
2023/07/07 12:51:32;;;;;;;1.45;0.15;;;32.50;42.10;;;;;;5033099;28;20057;-76
2023/07/07 12:53:58;;;;;;;1.20;0.10;;;32.60;40.90;;;;;;5032984;28;20014;-76
2023/07/07 12:56:29;;;;;;;1.80;0.17;;;32.50;41.20;;;;;;5033265;28;20048;-76
2023/07/07 12:58:58;;;;;;;0.98;0.00;;;32.60;41.80;;;;;;5032969;28;20030;-76
2023/07/07 13:01:42;;;;;;;0.38;0.10;;;32.50;41.40;;;;;;5033258;28;20052;-74
2023/07/07 13:04:12;;;;;;;2.15;0.17;;;32.50;43.20;;;;;;5033313;28;20029;-74